Terminal Aerodrome Forecast
Issued by NWS Blacksburg, VA

Current Version | Previous Version | Graphics & Text | Print | Product List | Glossary On
Versions: 1 2 3 4 5 6 7 8 9 10 11 12 13 14 15 16
000
FTUS41 KRNK 211427 AAA
TAFBLF
TAF AMD
KBLF 211427Z 2114/2212 31008KT P6SM BKN015
      TEMPO 2114/2116 SCT015 SCT045
     FM211700 29006KT P6SM SCT040
     FM212300 30005KT P6SM SCT130=

USA.gov is the U.S. government's official web portal to all federal, state and local government web resources and services.